sensor_id;sensor_type;location;lat;lon;timestamp;P1;durP1;ratioP1;P2;durP2;ratioP2
19969;SDS011;10146;47.754;9.566;2023-09-07T00:01:16;4.35;;;3.95;;
19969;SDS011;10146;47.754;9.566;2023-09-07T00:03:42;4.50;;;4.05;;
19969;SDS011;10146;47.754;9.566;2023-09-07T00:06:08;4.93;;;4.53;;
19969;SDS011;10146;47.754;9.566;2023-09-07T00:08:34;4.38;;;4.00;;
19969;SDS011;10146;47.754;9.566;2023-09-07T00:11:03;4.88;;;4.47;;
19969;SDS011;10146;47.754;9.566;2023-09-07T00:13:29;5.03;;;4.57;;
19969;SDS011;10146;47.754;9.566;2023-09-07T00:15:58;6.20;;;4.30;;
19969;SDS011;10146;47.754;9.566;2023-09-07T00:18:24;4.68;;;4.18;;
19969;SDS011;10146;47.754;9.566;2023-09-07T00:20:50;5.90;;;4.40;;
19969;SDS011;10146;47.754;9.566;2023-09-07T00:23:15;5.80;;;4.38;;
19969;SDS011;10146;47.754;9.566;2023-09-07T00:25:41;4.22;;;3.83;;
19969;SDS011;10146;47.754;9.566;2023-09-07T00:28:07;5.22;;;4.72;;
19969;SDS011;10146;47.754;9.566;2023-09-07T00:30:32;6.07;;;4.80;;
19969;SDS011;10146;47.754;9.566;2023-09-07T00:32:58;4.85;;;4.43;;
19969;SDS011;10146;47.754;9.566;2023-09-07T00:35:23;5.60;;;4.45;;
19969;SDS011;10146;47.754;9.566;2023-09-07T00:37:49;5.10;;;4.50;;
19969;SDS011;10146;47.754;9.566;2023-09-07T00:40:14;5.00;;;4.50;;
19969;SDS011;10146;47.754;9.566;2023-09-07T00:42:40;4.97;;;4.57;;
19969;SDS011;10146;47.754;9.566;2023-09-07T00:45:06;5.20;;;4.70;;
19969;SDS011;10146;47.754;9.566;2023-09-07T00:47:33;6.68;;;4.55;;
19969;SDS011;10146;47.754;9.566;2023-09-07T00:50:05;5.30;;;4.60;;
19969;SDS011;10146;47.754;9.566;2023-09-07T00:52:32;5.50;;;5.03;;
19969;SDS011;10146;47.754;9.566;2023-09-07T00:54:59;6.65;;;4.68;;
19969;SDS011;10146;47.754;9.566;2023-09-07T00:57:26;5.47;;;4.97;;
19969;SDS011;10146;47.754;9.566;2023-09-07T00:59:52;5.43;;;4.82;;
19969;SDS011;10146;47.754;9.566;2023-09-07T01:02:18;6.97;;;4.97;;
19969;SDS011;10146;47.754;9.566;2023-09-07T01:04:44;6.30;;;4.82;;
19969;SDS011;10146;47.754;9.566;2023-09-07T01:07:14;5.82;;;4.90;;
19969;SDS011;10146;47.754;9.566;2023-09-07T01:09:51;5.30;;;4.85;;
19969;SDS011;10146;47.754;9.566;2023-09-07T01:12:19;5.50;;;4.90;;
19969;SDS011;10146;47.754;9.566;2023-09-07T01:14:45;7.13;;;5.60;;
19969;SDS011;10146;47.754;9.566;2023-09-07T01:17:11;5.38;;;4.85;;
19969;SDS011;10146;47.754;9.566;2023-09-07T01:19:38;5.88;;;4.80;;
19969;SDS011;10146;47.754;9.566;2023-09-07T01:22:05;5.35;;;4.85;;
19969;SDS011;10146;47.754;9.566;2023-09-07T01:24:33;4.93;;;4.43;;
19969;SDS011;10146;47.754;9.566;2023-09-07T01:27:01;5.68;;;5.07;;
19969;SDS011;10146;47.754;9.566;2023-09-07T01:29:28;5.88;;;5.28;;
19969;SDS011;10146;47.754;9.566;2023-09-07T01:31:54;6.00;;;5.40;;
19969;SDS011;10146;47.754;9.566;2023-09-07T01:34:20;5.60;;;5.05;;
19969;SDS011;10146;47.754;9.566;2023-09-07T01:36:46;4.97;;;4.47;;
19969;SDS011;10146;47.754;9.566;2023-09-07T01:39:11;4.93;;;4.55;;
19969;SDS011;10146;47.754;9.566;2023-09-07T01:41:37;5.65;;;4.80;;
19969;SDS011;10146;47.754;9.566;2023-09-07T01:44:03;5.70;;;5.05;;
19969;SDS011;10146;47.754;9.566;2023-09-07T01:46:28;5.35;;;4.93;;
19969;SDS011;10146;47.754;9.566;2023-09-07T01:48:54;5.55;;;4.95;;
19969;SDS011;10146;47.754;9.566;2023-09-07T01:51:20;5.65;;;5.00;;
19969;SDS011;10146;47.754;9.566;2023-09-07T01:53:48;6.53;;;4.85;;
19969;SDS011;10146;47.754;9.566;2023-09-07T01:56:15;5.10;;;4.60;;
19969;SDS011;10146;47.754;9.566;2023-09-07T01:58:44;5.30;;;4.88;;
19969;SDS011;10146;47.754;9.566;2023-09-07T02:01:31;5.78;;;5.28;;
19969;SDS011;10146;47.754;9.566;2023-09-07T02:03:56;5.78;;;5.13;;
19969;SDS011;10146;47.754;9.566;2023-09-07T02:06:22;6.60;;;5.20;;
19969;SDS011;10146;47.754;9.566;2023-09-07T02:08:48;5.53;;;4.97;;
19969;SDS011;10146;47.754;9.566;2023-09-07T02:11:14;5.55;;;5.05;;
19969;SDS011;10146;47.754;9.566;2023-09-07T02:13:43;5.93;;;5.13;;
19969;SDS011;10146;47.754;9.566;2023-09-07T02:16:09;5.28;;;4.78;;
19969;SDS011;10146;47.754;9.566;2023-09-07T02:18:35;5.95;;;4.88;;
19969;SDS011;10146;47.754;9.566;2023-09-07T02:21:03;5.60;;;5.13;;
19969;SDS011;10146;47.754;9.566;2023-09-07T02:23:29;5.43;;;4.60;;
19969;SDS011;10146;47.754;9.566;2023-09-07T02:25:58;5.75;;;4.78;;
19969;SDS011;10146;47.754;9.566;2023-09-07T02:28:24;5.88;;;5.07;;
19969;SDS011;10146;47.754;9.566;2023-09-07T02:30:51;7.22;;;5.40;;
19969;SDS011;10146;47.754;9.566;2023-09-07T02:33:17;5.40;;;4.90;;
19969;SDS011;10146;47.754;9.566;2023-09-07T02:35:42;6.55;;;5.18;;
19969;SDS011;10146;47.754;9.566;2023-09-07T02:38:08;6.50;;;5.90;;
19969;SDS011;10146;47.754;9.566;2023-09-07T02:40:39;5.47;;;4.97;;
19969;SDS011;10146;47.754;9.566;2023-09-07T02:43:09;5.30;;;4.85;;
19969;SDS011;10146;47.754;9.566;2023-09-07T02:45:35;6.15;;;5.65;;
19969;SDS011;10146;47.754;9.566;2023-09-07T02:48:01;6.20;;;5.30;;
19969;SDS011;10146;47.754;9.566;2023-09-07T02:50:29;6.20;;;4.72;;
19969;SDS011;10146;47.754;9.566;2023-09-07T02:52:55;5.97;;;5.35;;
19969;SDS011;10146;47.754;9.566;2023-09-07T02:55:21;7.72;;;5.20;;
19969;SDS011;10146;47.754;9.566;2023-09-07T02:57:46;5.55;;;5.05;;
19969;SDS011;10146;47.754;9.566;2023-09-07T03:00:12;5.63;;;5.13;;
19969;SDS011;10146;47.754;9.566;2023-09-07T03:02:38;6.50;;;5.55;;
19969;SDS011;10146;47.754;9.566;2023-09-07T03:05:03;6.43;;;5.20;;
19969;SDS011;10146;47.754;9.566;2023-09-07T03:07:30;6.15;;;5.50;;
19969;SDS011;10146;47.754;9.566;2023-09-07T03:09:57;7.35;;;5.47;;
19969;SDS011;10146;47.754;9.566;2023-09-07T03:12:23;5.18;;;4.70;;
19969;SDS011;10146;47.754;9.566;2023-09-07T03:14:48;6.47;;;5.50;;
19969;SDS011;10146;47.754;9.566;2023-09-07T03:17:15;5.97;;;5.38;;
19969;SDS011;10146;47.754;9.566;2023-09-07T03:19:41;6.13;;;4.90;;
19969;SDS011;10146;47.754;9.566;2023-09-07T03:22:07;6.53;;;5.40;;
19969;SDS011;10146;47.754;9.566;2023-09-07T03:24:33;5.57;;;5.07;;
19969;SDS011;10146;47.754;9.566;2023-09-07T03:26:59;5.85;;;5.25;;
19969;SDS011;10146;47.754;9.566;2023-09-07T03:29:25;5.63;;;5.03;;
19969;SDS011;10146;47.754;9.566;2023-09-07T03:31:50;6.07;;;5.47;;
19969;SDS011;10146;47.754;9.566;2023-09-07T03:34:16;5.63;;;5.10;;
19969;SDS011;10146;47.754;9.566;2023-09-07T03:36:41;5.93;;;5.30;;
19969;SDS011;10146;47.754;9.566;2023-09-07T03:39:07;6.40;;;5.80;;
19969;SDS011;10146;47.754;9.566;2023-09-07T03:41:33;6.07;;;5.57;;
19969;SDS011;10146;47.754;9.566;2023-09-07T03:43:59;5.80;;;5.20;;
19969;SDS011;10146;47.754;9.566;2023-09-07T03:46:26;5.72;;;5.10;;
19969;SDS011;10146;47.754;9.566;2023-09-07T03:48:51;5.65;;;5.15;;
19969;SDS011;10146;47.754;9.566;2023-09-07T03:51:17;6.07;;;5.47;;
19969;SDS011;10146;47.754;9.566;2023-09-07T03:53:43;6.10;;;5.60;;
19969;SDS011;10146;47.754;9.566;2023-09-07T03:56:08;6.35;;;5.75;;
19969;SDS011;10146;47.754;9.566;2023-09-07T03:58:34;6.25;;;5.50;;
19969;SDS011;10146;47.754;9.566;2023-09-07T04:01:00;5.85;;;5.35;;
19969;SDS011;10146;47.754;9.566;2023-09-07T04:03:25;5.97;;;5.38;;
19969;SDS011;10146;47.754;9.566;2023-09-07T04:05:51;5.50;;;5.00;;
19969;SDS011;10146;47.754;9.566;2023-09-07T04:08:18;6.22;;;5.32;;
19969;SDS011;10146;47.754;9.566;2023-09-07T04:10:43;6.00;;;5.40;;
19969;SDS011;10146;47.754;9.566;2023-09-07T04:13:09;6.38;;;5.28;;
19969;SDS011;10146;47.754;9.566;2023-09-07T04:15:41;6.20;;;5.70;;
19969;SDS011;10146;47.754;9.566;2023-09-07T04:18:08;6.15;;;5.60;;
19969;SDS011;10146;47.754;9.566;2023-09-07T04:20:33;7.22;;;5.43;;
19969;SDS011;10146;47.754;9.566;2023-09-07T04:22:59;5.63;;;5.13;;
19969;SDS011;10146;47.754;9.566;2023-09-07T04:25:25;6.55;;;5.32;;
19969;SDS011;10146;47.754;9.566;2023-09-07T04:27:51;5.47;;;4.97;;
19969;SDS011;10146;47.754;9.566;2023-09-07T04:30:16;5.95;;;5.28;;
19969;SDS011;10146;47.754;9.566;2023-09-07T04:32:42;6.20;;;5.40;;
19969;SDS011;10146;47.754;9.566;2023-09-07T04:35:08;6.13;;;5.55;;
19969;SDS011;10146;47.754;9.566;2023-09-07T04:37:33;5.93;;;5.43;;
19969;SDS011;10146;47.754;9.566;2023-09-07T04:39:59;5.78;;;5.25;;
19969;SDS011;10146;47.754;9.566;2023-09-07T04:42:25;5.60;;;5.10;;
19969;SDS011;10146;47.754;9.566;2023-09-07T04:44:50;6.32;;;5.72;;
19969;SDS011;10146;47.754;9.566;2023-09-07T04:47:16;5.70;;;5.30;;
19969;SDS011;10146;47.754;9.566;2023-09-07T04:49:41;5.78;;;5.28;;
19969;SDS011;10146;47.754;9.566;2023-09-07T04:52:07;6.72;;;6.05;;
19969;SDS011;10146;47.754;9.566;2023-09-07T04:54:34;7.72;;;6.20;;
19969;SDS011;10146;47.754;9.566;2023-09-07T04:56:59;6.78;;;6.07;;
19969;SDS011;10146;47.754;9.566;2023-09-07T04:59:25;6.32;;;5.82;;
19969;SDS011;10146;47.754;9.566;2023-09-07T05:01:51;6.88;;;6.28;;
19969;SDS011;10146;47.754;9.566;2023-09-07T05:04:16;6.53;;;5.90;;
19969;SDS011;10146;47.754;9.566;2023-09-07T05:06:42;7.15;;;6.20;;
19969;SDS011;10146;47.754;9.566;2023-09-07T05:09:08;6.90;;;6.10;;
19969;SDS011;10146;47.754;9.566;2023-09-07T05:11:34;6.47;;;5.55;;
19969;SDS011;10146;47.754;9.566;2023-09-07T05:14:01;5.45;;;4.90;;
19969;SDS011;10146;47.754;9.566;2023-09-07T05:16:27;6.32;;;5.72;;
19969;SDS011;10146;47.754;9.566;2023-09-07T05:18:53;5.93;;;5.32;;
19969;SDS011;10146;47.754;9.566;2023-09-07T05:21:18;6.38;;;5.78;;
19969;SDS011;10146;47.754;9.566;2023-09-07T05:23:44;7.65;;;5.68;;
19969;SDS011;10146;47.754;9.566;2023-09-07T05:26:11;5.80;;;5.20;;
19969;SDS011;10146;47.754;9.566;2023-09-07T05:28:39;6.75;;;5.32;;
19969;SDS011;10146;47.754;9.566;2023-09-07T05:31:08;6.40;;;5.40;;
19969;SDS011;10146;47.754;9.566;2023-09-07T05:33:34;6.35;;;5.70;;
19969;SDS011;10146;47.754;9.566;2023-09-07T05:36:00;5.70;;;5.20;;
19969;SDS011;10146;47.754;9.566;2023-09-07T05:38:26;5.35;;;4.85;;
19969;SDS011;10146;47.754;9.566;2023-09-07T05:40:52;5.50;;;5.00;;
19969;SDS011;10146;47.754;9.566;2023-09-07T05:43:19;5.40;;;5.00;;
19969;SDS011;10146;47.754;9.566;2023-09-07T05:45:45;5.78;;;5.22;;
19969;SDS011;10146;47.754;9.566;2023-09-07T05:48:11;6.50;;;5.38;;
19969;SDS011;10146;47.754;9.566;2023-09-07T05:50:37;6.07;;;5.55;;
19969;SDS011;10146;47.754;9.566;2023-09-07T05:53:03;7.40;;;5.15;;
19969;SDS011;10146;47.754;9.566;2023-09-07T05:55:29;6.13;;;5.53;;
19969;SDS011;10146;47.754;9.566;2023-09-07T05:57:56;5.32;;;4.82;;
19969;SDS011;10146;47.754;9.566;2023-09-07T06:00:22;5.70;;;5.10;;
19969;SDS011;10146;47.754;9.566;2023-09-07T06:02:48;5.88;;;5.30;;
19969;SDS011;10146;47.754;9.566;2023-09-07T06:05:14;6.35;;;5.30;;
19969;SDS011;10146;47.754;9.566;2023-09-07T06:07:40;5.10;;;4.70;;
19969;SDS011;10146;47.754;9.566;2023-09-07T06:10:05;5.20;;;4.70;;
19969;SDS011;10146;47.754;9.566;2023-09-07T06:12:32;8.80;;;5.50;;
19969;SDS011;10146;47.754;9.566;2023-09-07T06:14:59;5.90;;;5.30;;
19969;SDS011;10146;47.754;9.566;2023-09-07T06:17:25;8.20;;;6.00;;
19969;SDS011;10146;47.754;9.566;2023-09-07T06:19:51;8.25;;;6.90;;
19969;SDS011;10146;47.754;9.566;2023-09-07T06:22:16;7.63;;;6.82;;
19969;SDS011;10146;47.754;9.566;2023-09-07T06:24:42;8.25;;;7.20;;
19969;SDS011;10146;47.754;9.566;2023-09-07T06:27:07;9.95;;;7.05;;
19969;SDS011;10146;47.754;9.566;2023-09-07T06:29:33;7.97;;;6.63;;
19969;SDS011;10146;47.754;9.566;2023-09-07T06:31:59;7.53;;;6.75;;
19969;SDS011;10146;47.754;9.566;2023-09-07T06:34:25;10.00;;;7.50;;
19969;SDS011;10146;47.754;9.566;2023-09-07T06:36:51;7.35;;;6.43;;
19969;SDS011;10146;47.754;9.566;2023-09-07T06:39:16;11.95;;;7.30;;
19969;SDS011;10146;47.754;9.566;2023-09-07T06:41:45;7.93;;;5.70;;
19969;SDS011;10146;47.754;9.566;2023-09-07T06:44:11;7.65;;;6.00;;
19969;SDS011;10146;47.754;9.566;2023-09-07T06:46:37;7.00;;;5.82;;
19969;SDS011;10146;47.754;9.566;2023-09-07T06:49:02;7.22;;;5.53;;
19969;SDS011;10146;47.754;9.566;2023-09-07T06:51:29;6.55;;;5.82;;
19969;SDS011;10146;47.754;9.566;2023-09-07T06:53:56;9.88;;;6.45;;
19969;SDS011;10146;47.754;9.566;2023-09-07T06:56:21;10.48;;;6.18;;
19969;SDS011;10146;47.754;9.566;2023-09-07T06:58:47;9.48;;;6.95;;
19969;SDS011;10146;47.754;9.566;2023-09-07T07:01:13;7.20;;;6.40;;
19969;SDS011;10146;47.754;9.566;2023-09-07T07:03:38;7.15;;;6.45;;
19969;SDS011;10146;47.754;9.566;2023-09-07T07:06:04;8.65;;;6.40;;
19969;SDS011;10146;47.754;9.566;2023-09-07T07:08:30;8.23;;;6.40;;
19969;SDS011;10146;47.754;9.566;2023-09-07T07:10:55;10.95;;;6.53;;
19969;SDS011;10146;47.754;9.566;2023-09-07T07:13:21;9.80;;;7.10;;
19969;SDS011;10146;47.754;9.566;2023-09-07T07:15:46;8.50;;;6.80;;
19969;SDS011;10146;47.754;9.566;2023-09-07T07:18:12;9.48;;;7.15;;
19969;SDS011;10146;47.754;9.566;2023-09-07T07:20:38;8.18;;;6.85;;
19969;SDS011;10146;47.754;9.566;2023-09-07T07:23:04;8.52;;;7.43;;
19969;SDS011;10146;47.754;9.566;2023-09-07T07:25:31;11.48;;;8.27;;
19969;SDS011;10146;47.754;9.566;2023-09-07T07:27:58;7.70;;;6.85;;
19969;SDS011;10146;47.754;9.566;2023-09-07T07:30:28;11.50;;;6.60;;
19969;SDS011;10146;47.754;9.566;2023-09-07T07:32:57;11.68;;;6.30;;
19969;SDS011;10146;47.754;9.566;2023-09-07T07:35:22;11.50;;;6.70;;
19969;SDS011;10146;47.754;9.566;2023-09-07T07:37:51;11.75;;;7.13;;
19969;SDS011;10146;47.754;9.566;2023-09-07T07:40:17;10.32;;;6.63;;
19969;SDS011;10146;47.754;9.566;2023-09-07T07:42:43;9.55;;;6.25;;
19969;SDS011;10146;47.754;9.566;2023-09-07T07:45:09;9.82;;;6.82;;
19969;SDS011;10146;47.754;9.566;2023-09-07T07:47:35;10.73;;;7.07;;
19969;SDS011;10146;47.754;9.566;2023-09-07T07:50:01;10.07;;;7.22;;
19969;SDS011;10146;47.754;9.566;2023-09-07T07:52:27;8.73;;;6.55;;
19969;SDS011;10146;47.754;9.566;2023-09-07T07:54:53;13.00;;;6.72;;
19969;SDS011;10146;47.754;9.566;2023-09-07T07:57:18;11.30;;;6.47;;
19969;SDS011;10146;47.754;9.566;2023-09-07T07:59:44;9.15;;;6.80;;
19969;SDS011;10146;47.754;9.566;2023-09-07T08:02:09;8.43;;;6.78;;
19969;SDS011;10146;47.754;9.566;2023-09-07T08:04:35;9.00;;;6.90;;
19969;SDS011;10146;47.754;9.566;2023-09-07T08:07:01;9.52;;;7.50;;
19969;SDS011;10146;47.754;9.566;2023-09-07T08:09:30;8.93;;;6.97;;
19969;SDS011;10146;47.754;9.566;2023-09-07T08:11:56;8.43;;;6.32;;
19969;SDS011;10146;47.754;9.566;2023-09-07T08:14:23;9.73;;;7.20;;
19969;SDS011;10146;47.754;9.566;2023-09-07T08:16:49;13.90;;;7.13;;
19969;SDS011;10146;47.754;9.566;2023-09-07T08:19:15;12.18;;;7.28;;
19969;SDS011;10146;47.754;9.566;2023-09-07T08:21:41;9.35;;;7.20;;
19969;SDS011;10146;47.754;9.566;2023-09-07T08:24:07;7.85;;;6.95;;
19969;SDS011;10146;47.754;9.566;2023-09-07T08:26:34;11.15;;;7.38;;
19969;SDS011;10146;47.754;9.566;2023-09-07T08:29:00;7.40;;;6.45;;
19969;SDS011;10146;47.754;9.566;2023-09-07T08:31:30;7.53;;;6.60;;
19969;SDS011;10146;47.754;9.566;2023-09-07T08:33:58;13.48;;;7.75;;
19969;SDS011;10146;47.754;9.566;2023-09-07T08:36:28;8.32;;;6.90;;
19969;SDS011;10146;47.754;9.566;2023-09-07T08:38:57;8.18;;;6.88;;
19969;SDS011;10146;47.754;9.566;2023-09-07T08:41:26;10.60;;;7.60;;
19969;SDS011;10146;47.754;9.566;2023-09-07T08:43:52;9.07;;;7.53;;
19969;SDS011;10146;47.754;9.566;2023-09-07T08:46:20;8.43;;;6.97;;
19969;SDS011;10146;47.754;9.566;2023-09-07T08:48:48;11.38;;;7.18;;
19969;SDS011;10146;47.754;9.566;2023-09-07T08:51:15;8.20;;;7.32;;
19969;SDS011;10146;47.754;9.566;2023-09-07T08:53:43;8.48;;;7.40;;
19969;SDS011;10146;47.754;9.566;2023-09-07T08:56:14;8.50;;;7.65;;
19969;SDS011;10146;47.754;9.566;2023-09-07T08:58:41;10.63;;;8.20;;
19969;SDS011;10146;47.754;9.566;2023-09-07T09:01:07;10.52;;;7.95;;
19969;SDS011;10146;47.754;9.566;2023-09-07T09:03:33;11.48;;;7.97;;
19969;SDS011;10146;47.754;9.566;2023-09-07T09:06:00;9.77;;;8.00;;
19969;SDS011;10146;47.754;9.566;2023-09-07T09:08:26;11.63;;;8.63;;
19969;SDS011;10146;47.754;9.566;2023-09-07T09:11:02;9.80;;;7.97;;
19969;SDS011;10146;47.754;9.566;2023-09-07T09:13:31;9.05;;;7.40;;
19969;SDS011;10146;47.754;9.566;2023-09-07T09:15:58;8.55;;;7.75;;
19969;SDS011;10146;47.754;9.566;2023-09-07T09:18:26;9.30;;;8.20;;
19969;SDS011;10146;47.754;9.566;2023-09-07T09:20:52;8.65;;;7.93;;
19969;SDS011;10146;47.754;9.566;2023-09-07T09:23:19;12.77;;;8.48;;
19969;SDS011;10146;47.754;9.566;2023-09-07T09:25:47;9.63;;;8.73;;
19969;SDS011;10146;47.754;9.566;2023-09-07T09:28:13;9.73;;;7.88;;
19969;SDS011;10146;47.754;9.566;2023-09-07T09:30:39;8.88;;;7.85;;
19969;SDS011;10146;47.754;9.566;2023-09-07T09:33:09;8.65;;;7.75;;
19969;SDS011;10146;47.754;9.566;2023-09-07T09:35:35;8.63;;;7.72;;
19969;SDS011;10146;47.754;9.566;2023-09-07T09:38:02;9.32;;;7.00;;
19969;SDS011;10146;47.754;9.566;2023-09-07T09:40:33;8.88;;;6.88;;
19969;SDS011;10146;47.754;9.566;2023-09-07T09:43:02;8.13;;;7.38;;
19969;SDS011;10146;47.754;9.566;2023-09-07T09:45:29;7.78;;;6.97;;
19969;SDS011;10146;47.754;9.566;2023-09-07T09:47:55;8.13;;;7.30;;
19969;SDS011;10146;47.754;9.566;2023-09-07T09:50:21;9.15;;;7.15;;
19969;SDS011;10146;47.754;9.566;2023-09-07T09:52:47;8.75;;;6.80;;
19969;SDS011;10146;47.754;9.566;2023-09-07T09:55:13;9.27;;;6.70;;
19969;SDS011;10146;47.754;9.566;2023-09-07T09:57:40;9.38;;;7.57;;
19969;SDS011;10146;47.754;9.566;2023-09-07T10:00:06;8.68;;;7.10;;
19969;SDS011;10146;47.754;9.566;2023-09-07T10:03:10;7.47;;;6.72;;
19969;SDS011;10146;47.754;9.566;2023-09-07T10:05:41;8.73;;;7.50;;
19969;SDS011;10146;47.754;9.566;2023-09-07T10:08:12;6.97;;;6.20;;
19969;SDS011;10146;47.754;9.566;2023-09-07T10:10:38;8.10;;;6.95;;
19969;SDS011;10146;47.754;9.566;2023-09-07T10:13:06;9.95;;;7.03;;
19969;SDS011;10146;47.754;9.566;2023-09-07T10:15:32;7.65;;;6.82;;
19969;SDS011;10146;47.754;9.566;2023-09-07T10:20:46;8.85;;;7.78;;
19969;SDS011;10146;47.754;9.566;2023-09-07T10:23:15;6.35;;;5.65;;
19969;SDS011;10146;47.754;9.566;2023-09-07T10:25:41;6.65;;;6.05;;
19969;SDS011;10146;47.754;9.566;2023-09-07T10:28:20;8.50;;;7.25;;
19969;SDS011;10146;47.754;9.566;2023-09-07T10:31:05;6.90;;;6.30;;
19969;SDS011;10146;47.754;9.566;2023-09-07T10:33:32;7.82;;;6.50;;
19969;SDS011;10146;47.754;9.566;2023-09-07T10:35:59;8.52;;;7.00;;
19969;SDS011;10146;47.754;9.566;2023-09-07T10:38:26;13.18;;;7.40;;
19969;SDS011;10146;47.754;9.566;2023-09-07T10:40:56;8.63;;;6.55;;
19969;SDS011;10146;47.754;9.566;2023-09-07T10:43:24;11.30;;;7.22;;
19969;SDS011;10146;47.754;9.566;2023-09-07T10:45:50;8.60;;;6.68;;
19969;SDS011;10146;47.754;9.566;2023-09-07T10:48:16;7.93;;;6.28;;
19969;SDS011;10146;47.754;9.566;2023-09-07T10:50:45;6.78;;;6.10;;
19969;SDS011;10146;47.754;9.566;2023-09-07T10:53:12;6.85;;;6.15;;
19969;SDS011;10146;47.754;9.566;2023-09-07T10:55:41;6.88;;;6.18;;
19969;SDS011;10146;47.754;9.566;2023-09-07T10:58:08;7.20;;;6.32;;
19969;SDS011;10146;47.754;9.566;2023-09-07T11:00:35;8.13;;;6.55;;
19969;SDS011;10146;47.754;9.566;2023-09-07T11:03:08;5.78;;;5.22;;
19969;SDS011;10146;47.754;9.566;2023-09-07T11:05:36;5.72;;;5.22;;
19969;SDS011;10146;47.754;9.566;2023-09-07T11:08:04;7.60;;;5.15;;
19969;SDS011;10146;47.754;9.566;2023-09-07T11:10:34;6.28;;;4.97;;
19969;SDS011;10146;47.754;9.566;2023-09-07T11:13:04;5.07;;;4.68;;
19969;SDS011;10146;47.754;9.566;2023-09-07T11:15:30;5.45;;;5.00;;
19969;SDS011;10146;47.754;9.566;2023-09-07T11:17:58;5.00;;;4.60;;
19969;SDS011;10146;47.754;9.566;2023-09-07T11:20:31;5.30;;;4.22;;
19969;SDS011;10146;47.754;9.566;2023-09-07T11:22:57;4.88;;;4.45;;
19969;SDS011;10146;47.754;9.566;2023-09-07T11:25:24;5.43;;;4.80;;
19969;SDS011;10146;47.754;9.566;2023-09-07T11:27:51;5.13;;;4.63;;
19969;SDS011;10146;47.754;9.566;2023-09-07T11:30:19;4.93;;;4.53;;
19969;SDS011;10146;47.754;9.566;2023-09-07T11:32:46;5.18;;;4.68;;
19969;SDS011;10146;47.754;9.566;2023-09-07T11:35:11;5.35;;;4.95;;
19969;SDS011;10146;47.754;9.566;2023-09-07T11:37:37;5.88;;;5.13;;
19969;SDS011;10146;47.754;9.566;2023-09-07T11:40:03;5.45;;;4.95;;
19969;SDS011;10146;47.754;9.566;2023-09-07T11:42:36;5.65;;;5.25;;
19969;SDS011;10146;47.754;9.566;2023-09-07T11:45:01;6.70;;;5.13;;
19969;SDS011;10146;47.754;9.566;2023-09-07T11:47:27;4.75;;;4.35;;
19969;SDS011;10146;47.754;9.566;2023-09-07T11:49:53;5.15;;;4.65;;
19969;SDS011;10146;47.754;9.566;2023-09-07T11:52:19;7.53;;;5.25;;
19969;SDS011;10146;47.754;9.566;2023-09-07T11:54:44;5.20;;;4.70;;
19969;SDS011;10146;47.754;9.566;2023-09-07T11:57:10;5.53;;;5.00;;
19969;SDS011;10146;47.754;9.566;2023-09-07T11:59:36;6.43;;;5.00;;
19969;SDS011;10146;47.754;9.566;2023-09-07T12:02:01;5.00;;;4.60;;
19969;SDS011;10146;47.754;9.566;2023-09-07T12:04:27;5.70;;;5.18;;
19969;SDS011;10146;47.754;9.566;2023-09-07T12:06:52;10.15;;;5.45;;
19969;SDS011;10146;47.754;9.566;2023-09-07T12:09:18;5.38;;;4.88;;
19969;SDS011;10146;47.754;9.566;2023-09-07T12:11:44;5.43;;;4.78;;
19969;SDS011;10146;47.754;9.566;2023-09-07T12:14:09;6.00;;;4.75;;
19969;SDS011;10146;47.754;9.566;2023-09-07T12:16:35;5.22;;;4.72;;
19969;SDS011;10146;47.754;9.566;2023-09-07T12:19:00;5.32;;;4.93;;
19969;SDS011;10146;47.754;9.566;2023-09-07T12:21:26;5.15;;;4.65;;
19969;SDS011;10146;47.754;9.566;2023-09-07T12:23:52;5.30;;;4.90;;
19969;SDS011;10146;47.754;9.566;2023-09-07T12:26:18;7.72;;;4.80;;
19969;SDS011;10146;47.754;9.566;2023-09-07T12:28:46;5.18;;;4.68;;
19969;SDS011;10146;47.754;9.566;2023-09-07T12:31:12;5.30;;;4.90;;
19969;SDS011;10146;47.754;9.566;2023-09-07T12:33:39;5.97;;;4.90;;
19969;SDS011;10146;47.754;9.566;2023-09-07T12:36:04;5.15;;;4.65;;
19969;SDS011;10146;47.754;9.566;2023-09-07T12:38:34;6.10;;;4.63;;
19969;SDS011;10146;47.754;9.566;2023-09-07T12:40:59;5.35;;;4.85;;
19969;SDS011;10146;47.754;9.566;2023-09-07T12:43:25;5.45;;;4.47;;
19969;SDS011;10146;47.754;9.566;2023-09-07T12:45:51;5.10;;;4.65;;
19969;SDS011;10146;47.754;9.566;2023-09-07T12:48:16;5.10;;;4.63;;
19969;SDS011;10146;47.754;9.566;2023-09-07T12:50:42;5.30;;;4.68;;
19969;SDS011;10146;47.754;9.566;2023-09-07T12:53:10;4.95;;;4.50;;
19969;SDS011;10146;47.754;9.566;2023-09-07T12:55:36;5.20;;;4.80;;
19969;SDS011;10146;47.754;9.566;2023-09-07T12:58:02;4.85;;;4.35;;
19969;SDS011;10146;47.754;9.566;2023-09-07T13:00:27;4.57;;;4.28;;
19969;SDS011;10146;47.754;9.566;2023-09-07T13:02:56;4.53;;;4.13;;
19969;SDS011;10146;47.754;9.566;2023-09-07T13:05:22;5.93;;;4.68;;
19969;SDS011;10146;47.754;9.566;2023-09-07T13:07:47;4.82;;;4.43;;
19969;SDS011;10146;47.754;9.566;2023-09-07T13:10:13;4.47;;;4.05;;
19969;SDS011;10146;47.754;9.566;2023-09-07T13:12:39;5.60;;;4.40;;
19969;SDS011;10146;47.754;9.566;2023-09-07T13:15:06;4.45;;;4.03;;
19969;SDS011;10146;47.754;9.566;2023-09-07T13:17:32;4.10;;;3.72;;
19969;SDS011;10146;47.754;9.566;2023-09-07T13:19:58;3.85;;;3.50;;
19969;SDS011;10146;47.754;9.566;2023-09-07T13:22:23;4.80;;;3.88;;
19969;SDS011;10146;47.754;9.566;2023-09-07T13:24:49;4.20;;;3.90;;
19969;SDS011;10146;47.754;9.566;2023-09-07T13:27:15;4.72;;;4.00;;
19969;SDS011;10146;47.754;9.566;2023-09-07T13:29:41;6.15;;;4.45;;
19969;SDS011;10146;47.754;9.566;2023-09-07T13:32:06;6.38;;;4.05;;
19969;SDS011;10146;47.754;9.566;2023-09-07T13:34:32;6.63;;;4.15;;
19969;SDS011;10146;47.754;9.566;2023-09-07T13:36:58;6.80;;;4.13;;
19969;SDS011;10146;47.754;9.566;2023-09-07T13:39:24;4.28;;;3.88;;
19969;SDS011;10146;47.754;9.566;2023-09-07T13:41:49;4.80;;;4.40;;
19969;SDS011;10146;47.754;9.566;2023-09-07T13:44:15;4.70;;;4.30;;
19969;SDS011;10146;47.754;9.566;2023-09-07T13:46:42;4.70;;;4.15;;
19969;SDS011;10146;47.754;9.566;2023-09-07T13:49:08;6.68;;;4.60;;
19969;SDS011;10146;47.754;9.566;2023-09-07T13:51:35;5.25;;;4.70;;
19969;SDS011;10146;47.754;9.566;2023-09-07T13:54:04;5.70;;;5.20;;
19969;SDS011;10146;47.754;9.566;2023-09-07T13:56:30;5.20;;;4.80;;
19969;SDS011;10146;47.754;9.566;2023-09-07T13:58:56;7.47;;;4.93;;
19969;SDS011;10146;47.754;9.566;2023-09-07T14:01:21;6.75;;;5.15;;
19969;SDS011;10146;47.754;9.566;2023-09-07T14:03:49;7.05;;;4.90;;
19969;SDS011;10146;47.754;9.566;2023-09-07T14:06:14;5.03;;;4.65;;
19969;SDS011;10146;47.754;9.566;2023-09-07T14:08:40;5.63;;;5.13;;
19969;SDS011;10146;47.754;9.566;2023-09-07T14:11:07;5.88;;;5.35;;
19969;SDS011;10146;47.754;9.566;2023-09-07T14:13:32;4.75;;;4.35;;
19969;SDS011;10146;47.754;9.566;2023-09-07T14:16:01;6.22;;;5.63;;
19969;SDS011;10146;47.754;9.566;2023-09-07T14:18:26;5.38;;;4.55;;
19969;SDS011;10146;47.754;9.566;2023-09-07T14:20:52;5.10;;;4.78;;
19969;SDS011;10146;47.754;9.566;2023-09-07T14:23:18;5.53;;;5.03;;
19969;SDS011;10146;47.754;9.566;2023-09-07T14:25:46;5.82;;;5.32;;
19969;SDS011;10146;47.754;9.566;2023-09-07T14:28:12;5.93;;;5.32;;
19969;SDS011;10146;47.754;9.566;2023-09-07T14:30:38;6.18;;;5.57;;
19969;SDS011;10146;47.754;9.566;2023-09-07T14:33:04;6.00;;;5.47;;
19969;SDS011;10146;47.754;9.566;2023-09-07T14:35:30;5.60;;;5.10;;
19969;SDS011;10146;47.754;9.566;2023-09-07T14:37:56;6.05;;;5.18;;
19969;SDS011;10146;47.754;9.566;2023-09-07T14:40:21;7.35;;;5.53;;
19969;SDS011;10146;47.754;9.566;2023-09-07T14:42:49;6.65;;;5.10;;
19969;SDS011;10146;47.754;9.566;2023-09-07T14:45:15;7.57;;;5.50;;